Aeroporto :
LOGIN :

Iscrizione | Disclaimer

   EN    FR    IT 

 










Sommario :    VFR   VFR Marginale   IFR   IFR Intensivo   IFR Molto Intensivo
Visibilità : 
Base nubi : 
>= 8 km
>= 3000ft
5 / 8 km
1000 / 3000 ft
1500m / 5 km
500 / 1000 ft
800 / 1500m
200 / 500 ft
< 800m
< 200 ft
Simboli :   Temporali  Nebbia  Neve Forte  Precipitazioni Forti  Vento > 20 kt
SIGMETs :   Varie  Temporali  Ghiacco  Turbolenza  Onda orograficha  Ceneri Vulcaniche






- Altitudine del aeroporto : 1910 ft
- Codice IATA : RDZ


LFCR - Rodez

ULTIMO METAR :
  • 250630Z AUTO 24007KT 9000 OVC023 05/03 Q1017 TEMPO 2000 RADZ OVC003

METARs OBSOLETI :
  • 250600Z AUTO 24008KT 8000 OVC021 05/03 Q1018 TEMPO 2000 RADZ OVC003
  • 250530Z AUTO 24007KT 8000 OVC018 04/03 Q1018 TEMPO 2000 BR OVC003
  • 250500Z AUTO VRB02KT 9000 OVC018 04/03 Q1018 TEMPO 2000 BR OVC003
  • 250430Z AUTO 28005KT 8000 OVC016 04/03 Q1018 TEMPO 2000 BR OVC003

TAF TAF LFCR
Valido dal 25 a 06 ore il 26 a 06 ore UTC


250500Z 2506/2606 VRB02KT 7000 BKN015
TEMPO 2506/2510 BKN007
PROB30
TEMPO 2506/2515 2000 RADZ OVC003
BECMG 2510/2512 25010KT
BECMG 2516/2518 28015G28KT 9999 BKN020
TEMPO 2518/2606 3000 SHRA BKN010TCU



MetMap, La meteo Aeronautica in un colpo d'occhio ! - Copyright ORBIFLY Dicembre 2007 - Disclaimer

ORBIFLY MET'MAP TEAM :

Programmazione e sviluppo : Alexandra Zaïnal
Concezione : Baudouin d'Aumeries
Aiuto per la programmazione : Marc-Olivier Méhu
Supporto tecnico e logistico : Manuel Goepfert
Aiuto per la traduzione : Arnaldo La Scala

Contatto : metmap@orbifly.com




FONTI E CREDITI :

   NOAA